sensor_id;sensor_type;location;lat;lon;timestamp;pressure;altitude;pressure_sealevel;temperature;humidity
22872;BME280;11603;44.910;8.630;2023-03-17T00:00:06;101213.25;;;8.70;100.00
22872;BME280;11603;44.910;8.630;2023-03-17T00:02:37;101223.13;;;8.68;100.00
22872;BME280;11603;44.910;8.630;2023-03-17T00:05:16;101220.59;;;8.65;100.00
22872;BME280;11603;44.910;8.630;2023-03-17T00:07:44;101226.28;;;8.58;100.00
22872;BME280;11603;44.910;8.630;2023-03-17T00:10:15;101223.88;;;8.52;100.00
22872;BME280;11603;44.910;8.630;2023-03-17T00:12:42;101217.00;;;8.46;100.00
22872;BME280;11603;44.910;8.630;2023-03-17T00:15:08;101232.59;;;8.35;100.00
22872;BME280;11603;44.910;8.630;2023-03-17T00:17:34;101239.00;;;8.29;100.00
22872;BME280;11603;44.910;8.630;2023-03-17T00:20:01;101233.97;;;8.22;100.00
22872;BME280;11603;44.910;8.630;2023-03-17T00:22:27;101244.78;;;8.19;100.00
22872;BME280;11603;44.910;8.630;2023-03-17T00:24:52;101245.66;;;8.19;100.00
22872;BME280;11603;44.910;8.630;2023-03-17T00:27:18;101247.59;;;8.16;100.00
22872;BME280;11603;44.910;8.630;2023-03-17T00:29:43;101248.50;;;8.15;100.00
22872;BME280;11603;44.910;8.630;2023-03-17T00:32:15;101250.63;;;8.06;100.00
22872;BME280;11603;44.910;8.630;2023-03-17T00:34:42;101251.63;;;8.04;100.00
22872;BME280;11603;44.910;8.630;2023-03-17T00:37:11;101258.00;;;8.00;100.00
22872;BME280;11603;44.910;8.630;2023-03-17T00:39:38;101257.25;;;7.96;100.00
22872;BME280;11603;44.910;8.630;2023-03-17T00:42:05;101255.41;;;7.98;100.00
22872;BME280;11603;44.910;8.630;2023-03-17T00:44:32;101256.50;;;7.93;100.00
22872;BME280;11603;44.910;8.630;2023-03-17T00:46:59;101259.03;;;7.96;100.00
22872;BME280;11603;44.910;8.630;2023-03-17T00:49:27;101253.56;;;8.00;100.00
22872;BME280;11603;44.910;8.630;2023-03-17T00:51:52;101249.88;;;8.03;100.00
22872;BME280;11603;44.910;8.630;2023-03-17T00:54:20;101254.53;;;7.98;100.00
22872;BME280;11603;44.910;8.630;2023-03-17T00:56:46;101253.81;;;7.94;100.00
22872;BME280;11603;44.910;8.630;2023-03-17T00:59:18;101248.00;;;7.85;100.00
22872;BME280;11603;44.910;8.630;2023-03-17T01:01:45;101255.28;;;7.80;100.00
22872;BME280;11603;44.910;8.630;2023-03-17T01:04:12;101250.22;;;7.74;100.00
22872;BME280;11603;44.910;8.630;2023-03-17T01:06:38;101241.09;;;7.79;100.00
22872;BME280;11603;44.910;8.630;2023-03-17T01:09:04;101247.31;;;7.80;100.00
22872;BME280;11603;44.910;8.630;2023-03-17T01:11:29;101245.47;;;7.80;100.00
22872;BME280;11603;44.910;8.630;2023-03-17T01:13:55;101233.91;;;7.81;100.00
22872;BME280;11603;44.910;8.630;2023-03-17T01:16:21;101233.72;;;7.86;100.00
22872;BME280;11603;44.910;8.630;2023-03-17T01:18:47;101238.94;;;7.89;100.00
22872;BME280;11603;44.910;8.630;2023-03-17T01:21:13;101237.88;;;7.93;100.00
22872;BME280;11603;44.910;8.630;2023-03-17T01:23:40;101234.97;;;7.99;100.00
22872;BME280;11603;44.910;8.630;2023-03-17T01:26:06;101236.69;;;8.00;100.00
22872;BME280;11603;44.910;8.630;2023-03-17T01:28:32;101226.16;;;7.97;100.00
22872;BME280;11603;44.910;8.630;2023-03-17T01:30:57;101229.19;;;7.88;100.00
22872;BME280;11603;44.910;8.630;2023-03-17T01:33:23;101231.13;;;7.84;100.00
22872;BME280;11603;44.910;8.630;2023-03-17T01:35:49;101225.00;;;7.82;100.00
22872;BME280;11603;44.910;8.630;2023-03-17T01:38:14;101228.38;;;7.86;100.00
22872;BME280;11603;44.910;8.630;2023-03-17T01:40:49;101228.53;;;7.83;100.00
22872;BME280;11603;44.910;8.630;2023-03-17T01:43:26;101228.53;;;7.83;100.00
22872;BME280;11603;44.910;8.630;2023-03-17T01:48:57;101228.81;;;7.75;100.00
22872;BME280;11603;44.910;8.630;2023-03-17T01:54:02;101233.28;;;7.75;100.00
22872;BME280;11603;44.910;8.630;2023-03-17T01:56:29;101231.31;;;7.80;100.00
22872;BME280;11603;44.910;8.630;2023-03-17T01:58:58;101235.84;;;7.78;100.00
22872;BME280;11603;44.910;8.630;2023-03-17T02:01:28;101228.81;;;7.75;100.00
22872;BME280;11603;44.910;8.630;2023-03-17T02:03:57;101225.28;;;7.75;100.00
22872;BME280;11603;44.910;8.630;2023-03-17T02:06:24;101227.34;;;7.68;100.00
22872;BME280;11603;44.910;8.630;2023-03-17T02:08:50;101238.00;;;7.68;100.00
22872;BME280;11603;44.910;8.630;2023-03-17T02:11:17;101236.22;;;7.69;100.00
22872;BME280;11603;44.910;8.630;2023-03-17T02:13:43;101239.75;;;7.69;100.00
22872;BME280;11603;44.910;8.630;2023-03-17T02:16:14;101235.88;;;7.76;100.00
22872;BME280;11603;44.910;8.630;2023-03-17T02:18:40;101244.69;;;7.78;100.00
22872;BME280;11603;44.910;8.630;2023-03-17T02:24:00;101245.63;;;7.77;100.00
22872;BME280;11603;44.910;8.630;2023-03-17T02:26:29;101256.41;;;7.74;100.00
22872;BME280;11603;44.910;8.630;2023-03-17T02:28:56;101250.06;;;7.77;100.00
22872;BME280;11603;44.910;8.630;2023-03-17T02:31:23;101246.53;;;7.76;100.00
22872;BME280;11603;44.910;8.630;2023-03-17T02:33:51;101245.38;;;7.83;100.00
22872;BME280;11603;44.910;8.630;2023-03-17T02:36:16;101247.03;;;7.86;100.00
22872;BME280;11603;44.910;8.630;2023-03-17T02:38:45;101252.25;;;7.89;100.00
22872;BME280;11603;44.910;8.630;2023-03-17T02:41:10;101248.56;;;7.91;100.00
22872;BME280;11603;44.910;8.630;2023-03-17T02:43:36;101249.44;;;7.92;100.00
22872;BME280;11603;44.910;8.630;2023-03-17T02:46:02;101249.50;;;7.90;100.00
22872;BME280;11603;44.910;8.630;2023-03-17T02:48:30;101246.97;;;7.87;100.00
22872;BME280;11603;44.910;8.630;2023-03-17T02:50:57;101244.44;;;7.84;100.00
22872;BME280;11603;44.910;8.630;2023-03-17T02:53:22;101240.84;;;7.85;100.00
22872;BME280;11603;44.910;8.630;2023-03-17T02:55:48;101240.78;;;7.87;100.00
22872;BME280;11603;44.910;8.630;2023-03-17T02:58:14;101245.25;;;7.86;100.00
22872;BME280;11603;44.910;8.630;2023-03-17T03:00:39;101234.53;;;7.88;100.00
22872;BME280;11603;44.910;8.630;2023-03-17T03:03:05;101241.59;;;7.89;100.00
22872;BME280;11603;44.910;8.630;2023-03-17T03:05:31;101238.69;;;7.95;100.00
22872;BME280;11603;44.910;8.630;2023-03-17T03:07:56;101248.38;;;7.96;100.00
22872;BME280;11603;44.910;8.630;2023-03-17T03:10:22;101247.34;;;8.00;100.00
22872;BME280;11603;44.910;8.630;2023-03-17T03:12:47;101249.16;;;7.99;100.00
22872;BME280;11603;44.910;8.630;2023-03-17T03:15:13;101249.16;;;7.99;100.00
22872;BME280;11603;44.910;8.630;2023-03-17T03:17:38;101244.94;;;7.94;100.00
22872;BME280;11603;44.910;8.630;2023-03-17T03:20:04;101242.34;;;7.92;100.00
22872;BME280;11603;44.910;8.630;2023-03-17T03:22:30;101242.09;;;7.98;100.00
22872;BME280;11603;44.910;8.630;2023-03-17T03:24:55;101242.81;;;8.02;100.00
22872;BME280;11603;44.910;8.630;2023-03-17T03:27:21;101249.00;;;8.02;100.00
22872;BME280;11603;44.910;8.630;2023-03-17T03:29:46;101246.53;;;7.98;100.00
22872;BME280;11603;44.910;8.630;2023-03-17T03:32:12;101242.03;;;8.00;100.00
22872;BME280;11603;44.910;8.630;2023-03-17T03:34:37;101244.69;;;8.00;100.00
22872;BME280;11603;44.910;8.630;2023-03-17T03:37:03;101249.25;;;7.96;100.00
22872;BME280;11603;44.910;8.630;2023-03-17T03:39:28;101252.94;;;7.94;100.00
22872;BME280;11603;44.910;8.630;2023-03-17T03:41:54;101252.88;;;7.95;100.00
22872;BME280;11603;44.910;8.630;2023-03-17T03:44:22;101247.66;;;7.92;100.00
22872;BME280;11603;44.910;8.630;2023-03-17T03:46:49;101252.13;;;7.92;100.00
22872;BME280;11603;44.910;8.630;2023-03-17T03:49:15;101254.78;;;7.92;100.00
22872;BME280;11603;44.910;8.630;2023-03-17T03:51:41;101259.31;;;7.90;100.00
22872;BME280;11603;44.910;8.630;2023-03-17T03:54:07;101257.81;;;7.83;100.00
22872;BME280;11603;44.910;8.630;2023-03-17T03:56:32;101261.72;;;7.74;100.00
22872;BME280;11603;44.910;8.630;2023-03-17T03:58:58;101267.41;;;7.65;100.00
22872;BME280;11603;44.910;8.630;2023-03-17T04:01:23;101264.88;;;7.39;100.00
22872;BME280;11603;44.910;8.630;2023-03-17T04:03:49;101271.19;;;7.13;100.00
22872;BME280;11603;44.910;8.630;2023-03-17T04:06:17;101272.75;;;6.95;100.00
22872;BME280;11603;44.910;8.630;2023-03-17T04:08:43;101273.81;;;6.90;100.00
22872;BME280;11603;44.910;8.630;2023-03-17T04:11:08;101267.50;;;6.92;100.00
22872;BME280;11603;44.910;8.630;2023-03-17T04:13:34;101268.69;;;6.85;100.00
22872;BME280;11603;44.910;8.630;2023-03-17T04:16:01;101269.63;;;6.82;100.00
22872;BME280;11603;44.910;8.630;2023-03-17T04:18:27;101265.38;;;6.78;100.00
22872;BME280;11603;44.910;8.630;2023-03-17T04:20:52;101268.91;;;6.79;100.00
22872;BME280;11603;44.910;8.630;2023-03-17T04:23:18;101269.84;;;6.76;100.00
22872;BME280;11603;44.910;8.630;2023-03-17T04:25:43;101271.81;;;6.71;100.00
22872;BME280;11603;44.910;8.630;2023-03-17T04:28:09;101272.84;;;6.67;100.00
22872;BME280;11603;44.910;8.630;2023-03-17T04:30:35;101277.25;;;6.68;100.00
22872;BME280;11603;44.910;8.630;2023-03-17T04:33:00;101275.66;;;6.63;100.00
22872;BME280;11603;44.910;8.630;2023-03-17T04:35:26;101268.78;;;6.57;100.00
22872;BME280;11603;44.910;8.630;2023-03-17T04:37:52;101273.25;;;6.55;100.00
22872;BME280;11603;44.910;8.630;2023-03-17T04:40:17;101273.34;;;6.54;100.00
22872;BME280;11603;44.910;8.630;2023-03-17T04:42:43;101278.69;;;6.52;100.00
22872;BME280;11603;44.910;8.630;2023-03-17T04:45:11;101277.25;;;6.44;100.00
22872;BME280;11603;44.910;8.630;2023-03-17T04:47:37;101278.31;;;6.38;100.00
22872;BME280;11603;44.910;8.630;2023-03-17T04:50:04;101276.50;;;6.38;100.00
22872;BME280;11603;44.910;8.630;2023-03-17T04:52:29;101276.41;;;6.42;100.00
22872;BME280;11603;44.910;8.630;2023-03-17T04:54:55;101282.09;;;6.31;100.00
22872;BME280;11603;44.910;8.630;2023-03-17T04:57:20;101275.31;;;6.22;100.00
22872;BME280;11603;44.910;8.630;2023-03-17T04:59:46;101277.38;;;6.13;100.00
22872;BME280;11603;44.910;8.630;2023-03-17T05:02:12;101277.63;;;6.05;100.00
22872;BME280;11603;44.910;8.630;2023-03-17T05:04:38;101277.72;;;6.02;100.00
22872;BME280;11603;44.910;8.630;2023-03-17T05:07:03;101278.66;;;6.01;100.00
22872;BME280;11603;44.910;8.630;2023-03-17T05:09:29;101285.84;;;5.97;100.00
22872;BME280;11603;44.910;8.630;2023-03-17T05:11:54;101282.25;;;5.99;100.00
22872;BME280;11603;44.910;8.630;2023-03-17T05:14:20;101282.25;;;5.99;100.00
22872;BME280;11603;44.910;8.630;2023-03-17T05:16:46;101284.00;;;6.00;100.00
22872;BME280;11603;44.910;8.630;2023-03-17T05:19:12;101287.56;;;5.99;100.00
22872;BME280;11603;44.910;8.630;2023-03-17T05:21:38;101280.53;;;5.97;100.00
22872;BME280;11603;44.910;8.630;2023-03-17T05:24:04;101288.50;;;5.97;100.00
22872;BME280;11603;44.910;8.630;2023-03-17T05:26:31;101278.75;;;5.98;100.00
22872;BME280;11603;44.910;8.630;2023-03-17T05:28:56;101287.53;;;6.00;100.00
22872;BME280;11603;44.910;8.630;2023-03-17T05:31:22;101287.63;;;5.97;100.00
22872;BME280;11603;44.910;8.630;2023-03-17T05:33:47;101294.78;;;5.95;100.00
22872;BME280;11603;44.910;8.630;2023-03-17T05:36:14;101295.72;;;5.92;100.00
22872;BME280;11603;44.910;8.630;2023-03-17T05:38:39;101291.28;;;5.93;100.00
22872;BME280;11603;44.910;8.630;2023-03-17T05:41:06;101299.19;;;5.96;100.00
22872;BME280;11603;44.910;8.630;2023-03-17T05:43:32;101301.88;;;5.94;100.00
22872;BME280;11603;44.910;8.630;2023-03-17T05:45:57;101299.97;;;5.98;100.00
22872;BME280;11603;44.910;8.630;2023-03-17T05:48:23;101302.63;;;5.98;100.00
22872;BME280;11603;44.910;8.630;2023-03-17T05:50:48;101298.25;;;5.97;100.00
22872;BME280;11603;44.910;8.630;2023-03-17T05:53:14;101306.34;;;5.92;100.00
22872;BME280;11603;44.910;8.630;2023-03-17T05:55:40;101302.09;;;5.87;100.00
22872;BME280;11603;44.910;8.630;2023-03-17T05:58:06;101300.28;;;5.89;100.00
22872;BME280;11603;44.910;8.630;2023-03-17T06:00:32;101299.44;;;5.87;100.00
22872;BME280;11603;44.910;8.630;2023-03-17T06:02:57;101302.91;;;5.90;100.00
22872;BME280;11603;44.910;8.630;2023-03-17T06:05:23;101299.25;;;5.93;100.00
22872;BME280;11603;44.910;8.630;2023-03-17T06:07:48;101301.00;;;5.94;100.00
22872;BME280;11603;44.910;8.630;2023-03-17T06:10:14;101305.38;;;5.97;100.00
22872;BME280;11603;44.910;8.630;2023-03-17T06:12:39;101309.66;;;6.01;100.00
22872;BME280;11603;44.910;8.630;2023-03-17T06:15:06;101309.91;;;5.91;100.00
22872;BME280;11603;44.910;8.630;2023-03-17T06:17:34;101304.72;;;5.88;100.00
22872;BME280;11603;44.910;8.630;2023-03-17T06:20:00;101304.56;;;5.93;100.00
22872;BME280;11603;44.910;8.630;2023-03-17T06:22:26;101312.50;;;5.94;100.00
22872;BME280;11603;44.910;8.630;2023-03-17T06:24:52;101313.56;;;5.89;100.00
22872;BME280;11603;44.910;8.630;2023-03-17T06:27:17;101322.88;;;5.73;100.00
22872;BME280;11603;44.910;8.630;2023-03-17T06:29:43;101330.31;;;5.60;100.00
22872;BME280;11603;44.910;8.630;2023-03-17T06:32:09;101322.56;;;5.54;100.00
22872;BME280;11603;44.910;8.630;2023-03-17T06:34:35;101328.66;;;5.58;100.00
22872;BME280;11603;44.910;8.630;2023-03-17T06:37:01;101335.78;;;5.55;100.00
22872;BME280;11603;44.910;8.630;2023-03-17T06:39:26;101333.06;;;5.59;100.00
22872;BME280;11603;44.910;8.630;2023-03-17T06:41:52;101335.63;;;5.60;100.00
22872;BME280;11603;44.910;8.630;2023-03-17T06:44:17;101342.75;;;5.60;100.00
22872;BME280;11603;44.910;8.630;2023-03-17T06:46:43;101339.06;;;5.65;100.00
22872;BME280;11603;44.910;8.630;2023-03-17T06:49:08;101331.75;;;5.72;100.00
22872;BME280;11603;44.910;8.630;2023-03-17T06:51:37;101334.22;;;5.78;100.00
22872;BME280;11603;44.910;8.630;2023-03-17T06:54:03;101341.16;;;5.82;100.00
22872;BME280;11603;44.910;8.630;2023-03-17T06:56:28;101338.66;;;5.77;100.00
22872;BME280;11603;44.910;8.630;2023-03-17T06:58:54;101339.38;;;5.82;100.00
22872;BME280;11603;44.910;8.630;2023-03-17T07:01:20;101336.47;;;5.91;100.00
22872;BME280;11603;44.910;8.630;2023-03-17T07:03:46;101344.06;;;6.04;100.00
22872;BME280;11603;44.910;8.630;2023-03-17T07:06:11;101345.47;;;6.15;100.00
22872;BME280;11603;44.910;8.630;2023-03-17T07:08:37;101340.16;;;6.15;100.00
22872;BME280;11603;44.910;8.630;2023-03-17T07:11:03;101348.09;;;6.17;100.00
22872;BME280;11603;44.910;8.630;2023-03-17T07:13:29;101337.00;;;6.30;100.00
22872;BME280;11603;44.910;8.630;2023-03-17T07:16:00;101341.72;;;6.49;100.00
22872;BME280;11603;44.910;8.630;2023-03-17T07:18:27;101337.13;;;6.54;100.00
22872;BME280;11603;44.910;8.630;2023-03-17T07:20:57;101347.25;;;6.69;100.00
22872;BME280;11603;44.910;8.630;2023-03-17T07:23:23;101346.72;;;6.84;100.00
22872;BME280;11603;44.910;8.630;2023-03-17T07:25:49;101336.44;;;6.98;100.00
22872;BME280;11603;44.910;8.630;2023-03-17T07:28:15;101345.66;;;7.13;100.00
22872;BME280;11603;44.910;8.630;2023-03-17T07:30:41;101345.09;;;7.28;100.00
22872;BME280;11603;44.910;8.630;2023-03-17T07:33:11;101342.13;;;7.37;100.00
22872;BME280;11603;44.910;8.630;2023-03-17T07:35:37;101341.19;;;7.38;100.00
22872;BME280;11603;44.910;8.630;2023-03-17T07:38:03;101347.50;;;7.36;100.00
22872;BME280;11603;44.910;8.630;2023-03-17T07:40:29;101346.19;;;7.47;100.00
22872;BME280;11603;44.910;8.630;2023-03-17T07:42:55;101345.44;;;7.67;100.00
22872;BME280;11603;44.910;8.630;2023-03-17T07:45:21;101348.59;;;7.77;100.00
22872;BME280;11603;44.910;8.630;2023-03-17T07:47:47;101342.88;;;7.87;100.00
22872;BME280;11603;44.910;8.630;2023-03-17T07:50:13;101346.84;;;7.99;100.00
22872;BME280;11603;44.910;8.630;2023-03-17T07:52:39;101337.59;;;7.86;100.00
22872;BME280;11603;44.910;8.630;2023-03-17T07:55:05;101343.63;;;7.68;100.00
22872;BME280;11603;44.910;8.630;2023-03-17T07:57:35;101347.72;;;7.76;100.00
22872;BME280;11603;44.910;8.630;2023-03-17T08:00:03;101337.25;;;7.95;100.00
22872;BME280;11603;44.910;8.630;2023-03-17T08:02:36;101341.88;;;8.12;100.00
22872;BME280;11603;44.910;8.630;2023-03-17T08:05:03;101338.88;;;8.21;100.00
22872;BME280;11603;44.910;8.630;2023-03-17T08:07:29;101346.63;;;8.27;100.00
22872;BME280;11603;44.910;8.630;2023-03-17T08:09:57;101339.75;;;8.43;100.00
22872;BME280;11603;44.910;8.630;2023-03-17T08:12:23;101341.97;;;8.54;100.00
22872;BME280;11603;44.910;8.630;2023-03-17T08:14:50;101337.41;;;8.35;100.00
22872;BME280;11603;44.910;8.630;2023-03-17T08:17:15;101344.06;;;8.24;100.00
22872;BME280;11603;44.910;8.630;2023-03-17T08:19:42;101345.19;;;8.18;100.00
22872;BME280;11603;44.910;8.630;2023-03-17T08:22:09;101335.16;;;8.25;100.00
22872;BME280;11603;44.910;8.630;2023-03-17T08:24:35;101342.09;;;8.29;100.00
22872;BME280;11603;44.910;8.630;2023-03-17T08:27:01;101341.22;;;8.50;100.00
22872;BME280;11603;44.910;8.630;2023-03-17T08:29:28;101330.31;;;8.56;100.00
22872;BME280;11603;44.910;8.630;2023-03-17T08:31:55;101347.00;;;8.81;100.00
22872;BME280;11603;44.910;8.630;2023-03-17T08:34:21;101340.09;;;8.77;100.00
22872;BME280;11603;44.910;8.630;2023-03-17T08:36:46;101343.50;;;8.59;100.00
22872;BME280;11603;44.910;8.630;2023-03-17T08:39:12;101332.06;;;8.57;100.00
22872;BME280;11603;44.910;8.630;2023-03-17T08:41:37;101339.03;;;8.60;100.00
22872;BME280;11603;44.910;8.630;2023-03-17T08:44:03;101342.03;;;8.74;100.00
22872;BME280;11603;44.910;8.630;2023-03-17T08:46:30;101335.00;;;8.71;100.00
22872;BME280;11603;44.910;8.630;2023-03-17T08:48:57;101338.03;;;8.84;100.00
22872;BME280;11603;44.910;8.630;2023-03-17T08:51:25;101334.81;;;8.96;100.00
22872;BME280;11603;44.910;8.630;2023-03-17T08:53:52;101342.53;;;9.22;100.00
22872;BME280;11603;44.910;8.630;2023-03-17T08:56:17;101346.47;;;9.53;100.00
22872;BME280;11603;44.910;8.630;2023-03-17T08:58:43;101338.94;;;9.81;100.00
22872;BME280;11603;44.910;8.630;2023-03-17T09:01:09;101340.22;;;9.91;100.00
22872;BME280;11603;44.910;8.630;2023-03-17T09:03:38;101339.53;;;9.88;100.00
22872;BME280;11603;44.910;8.630;2023-03-17T09:06:06;101332.28;;;9.90;100.00
22872;BME280;11603;44.910;8.630;2023-03-17T09:08:33;101333.78;;;10.14;100.00
22872;BME280;11603;44.910;8.630;2023-03-17T09:11:00;101323.31;;;10.09;100.00
22872;BME280;11603;44.910;8.630;2023-03-17T09:13:26;101326.94;;;10.27;100.00
22872;BME280;11603;44.910;8.630;2023-03-17T09:15:52;101316.44;;;10.58;100.00
22872;BME280;11603;44.910;8.630;2023-03-17T09:18:18;101327.22;;;10.21;100.00
22872;BME280;11603;44.910;8.630;2023-03-17T09:20:44;101321.44;;;10.30;100.00
22872;BME280;11603;44.910;8.630;2023-03-17T09:23:11;101316.94;;;10.67;100.00
22872;BME280;11603;44.910;8.630;2023-03-17T09:25:38;101313.69;;;10.94;99.37
22872;BME280;11603;44.910;8.630;2023-03-17T09:28:04;101311.28;;;11.23;96.55
22872;BME280;11603;44.910;8.630;2023-03-17T09:30:33;101305.03;;;11.39;94.15
22872;BME280;11603;44.910;8.630;2023-03-17T09:32:59;101307.25;;;11.31;92.66
22872;BME280;11603;44.910;8.630;2023-03-17T09:35:26;101312.50;;;11.50;92.74
22872;BME280;11603;44.910;8.630;2023-03-17T09:37:53;101306.41;;;11.46;90.48
22872;BME280;11603;44.910;8.630;2023-03-17T09:40:20;101308.34;;;11.60;91.63
22872;BME280;11603;44.910;8.630;2023-03-17T09:42:52;101312.97;;;11.74;89.98
22872;BME280;11603;44.910;8.630;2023-03-17T09:50:38;101307.34;;;12.10;84.41
22872;BME280;11603;44.910;8.630;2023-03-17T09:53:16;101309.28;;;12.23;82.68
22872;BME280;11603;44.910;8.630;2023-03-17T09:55:43;101296.34;;;12.30;82.62
22872;BME280;11603;44.910;8.630;2023-03-17T09:58:10;101292.69;;;12.47;80.17
22872;BME280;11603;44.910;8.630;2023-03-17T10:00:35;101296.03;;;12.66;78.64
22872;BME280;11603;44.910;8.630;2023-03-17T10:03:01;101294.09;;;12.68;77.20
22872;BME280;11603;44.910;8.630;2023-03-17T10:05:30;101294.41;;;12.78;76.83
22872;BME280;11603;44.910;8.630;2023-03-17T10:08:20;101292.03;;;13.17;73.71
22872;BME280;11603;44.910;8.630;2023-03-17T10:10:55;101288.28;;;13.20;72.08
22872;BME280;11603;44.910;8.630;2023-03-17T10:16:07;101286.25;;;13.51;70.00
22872;BME280;11603;44.910;8.630;2023-03-17T10:18:54;101283.28;;;13.56;69.29
22872;BME280;11603;44.910;8.630;2023-03-17T10:21:47;101274.19;;;13.44;70.35
22872;BME280;11603;44.910;8.630;2023-03-17T10:24:14;101277.56;;;13.34;71.70
22872;BME280;11603;44.910;8.630;2023-03-17T10:26:43;101268.44;;;13.22;73.80
22872;BME280;11603;44.910;8.630;2023-03-17T10:29:17;101268.13;;;13.27;72.91
22872;BME280;11603;44.910;8.630;2023-03-17T10:31:43;101269.66;;;13.59;72.83
22872;BME280;11603;44.910;8.630;2023-03-17T10:36:47;101247.13;;;13.88;70.05
22872;BME280;11603;44.910;8.630;2023-03-17T10:39:17;101249.88;;;14.28;68.81
22872;BME280;11603;44.910;8.630;2023-03-17T10:41:57;101245.78;;;14.35;68.57
22872;BME280;11603;44.910;8.630;2023-03-17T10:44:57;101240.63;;;14.32;67.63
22872;BME280;11603;44.910;8.630;2023-03-17T10:47:32;101233.38;;;14.47;67.13
22872;BME280;11603;44.910;8.630;2023-03-17T10:50:12;101235.34;;;14.57;67.87
22872;BME280;11603;44.910;8.630;2023-03-17T10:52:43;101234.81;;;14.77;66.10
22872;BME280;11603;44.910;8.630;2023-03-17T10:55:14;101233.75;;;14.93;65.10
22872;BME280;11603;44.910;8.630;2023-03-17T10:58:34;101231.06;;;15.05;64.00
22872;BME280;11603;44.910;8.630;2023-03-17T11:00:35;101237.31;;;15.06;64.02
22872;BME280;11603;44.910;8.630;2023-03-17T11:03:20;101228.44;;;15.29;63.81
22872;BME280;11603;44.910;8.630;2023-03-17T11:05:55;101224.28;;;15.12;62.36
22872;BME280;11603;44.910;8.630;2023-03-17T11:08:21;101231.59;;;14.98;63.27
22872;BME280;11603;44.910;8.630;2023-03-17T11:10:53;101227.16;;;14.59;64.67
22872;BME280;11603;44.910;8.630;2023-03-17T11:13:19;101222.75;;;14.70;64.65
22872;BME280;11603;44.910;8.630;2023-03-17T11:15:52;101223.84;;;14.93;64.96
22872;BME280;11603;44.910;8.630;2023-03-17T11:18:26;101214.13;;;15.03;64.97
22872;BME280;11603;44.910;8.630;2023-03-17T11:21:09;101205.53;;;15.11;63.93
22872;BME280;11603;44.910;8.630;2023-03-17T11:24:23;101210.38;;;14.80;59.80
22872;BME280;11603;44.910;8.630;2023-03-17T11:26:52;101196.91;;;15.06;58.24
22872;BME280;11603;44.910;8.630;2023-03-17T11:29:25;101195.75;;;15.34;58.04
22872;BME280;11603;44.910;8.630;2023-03-17T11:38:28;101181.03;;;15.14;55.91
22872;BME280;11603;44.910;8.630;2023-03-17T11:46:45;101167.88;;;15.22;51.80
22872;BME280;11603;44.910;8.630;2023-03-17T11:49:21;101170.16;;;15.28;51.49
22872;BME280;11603;44.910;8.630;2023-03-17T11:54:53;101167.19;;;15.44;52.77
22872;BME280;11603;44.910;8.630;2023-03-17T11:59:57;101160.00;;;15.19;54.72
22872;BME280;11603;44.910;8.630;2023-03-17T12:05:21;101155.56;;;15.18;56.01
22872;BME280;11603;44.910;8.630;2023-03-17T12:07:52;101141.31;;;15.28;55.63
22872;BME280;11603;44.910;8.630;2023-03-17T12:10:25;101146.47;;;15.44;55.50
22872;BME280;11603;44.910;8.630;2023-03-17T12:13:09;101137.97;;;15.38;54.62
22872;BME280;11603;44.910;8.630;2023-03-17T12:15:40;101140.25;;;15.31;53.31
22872;BME280;11603;44.910;8.630;2023-03-17T12:18:14;101138.38;;;15.44;54.45
22872;BME280;11603;44.910;8.630;2023-03-17T12:20:52;101140.31;;;15.55;53.58
22872;BME280;11603;44.910;8.630;2023-03-17T12:23:41;101126.50;;;15.59;53.76
22872;BME280;11603;44.910;8.630;2023-03-17T12:26:14;101135.47;;;15.47;54.89
22872;BME280;11603;44.910;8.630;2023-03-17T12:29:14;101119.44;;;15.70;54.37
22872;BME280;11603;44.910;8.630;2023-03-17T12:31:45;101116.66;;;15.82;53.77
22872;BME280;11603;44.910;8.630;2023-03-17T12:36:58;101114.38;;;15.89;54.58
22872;BME280;11603;44.910;8.630;2023-03-17T12:39:34;101116.16;;;16.01;54.13
22872;BME280;11603;44.910;8.630;2023-03-17T12:47:37;101103.47;;;16.36;53.71
22872;BME280;11603;44.910;8.630;2023-03-17T12:50:26;101102.22;;;16.64;52.79
22872;BME280;11603;44.910;8.630;2023-03-17T12:53:29;101098.91;;;16.83;49.16
22872;BME280;11603;44.910;8.630;2023-03-17T12:55:59;101096.19;;;16.83;50.48
22872;BME280;11603;44.910;8.630;2023-03-17T12:58:36;101095.56;;;16.68;51.06
22872;BME280;11603;44.910;8.630;2023-03-17T13:01:36;101085.00;;;16.76;51.20
22872;BME280;11603;44.910;8.630;2023-03-17T13:04:24;101086.47;;;16.58;51.25
22872;BME280;11603;44.910;8.630;2023-03-17T13:07:14;101082.19;;;16.67;50.54
22872;BME280;11603;44.910;8.630;2023-03-17T13:23:46;101062.31;;;16.68;42.97
22872;BME280;11603;44.910;8.630;2023-03-17T13:26:17;101053.06;;;16.81;42.25
22872;BME280;11603;44.910;8.630;2023-03-17T13:28:46;101047.56;;;16.83;42.20
22872;BME280;11603;44.910;8.630;2023-03-17T13:33:52;101044.25;;;16.79;41.13
22872;BME280;11603;44.910;8.630;2023-03-17T13:36:26;101046.81;;;16.81;38.87
22872;BME280;11603;44.910;8.630;2023-03-17T13:47:15;101031.34;;;16.94;41.29
22872;BME280;11603;44.910;8.630;2023-03-17T13:49:51;101029.59;;;17.04;41.06
22872;BME280;11603;44.910;8.630;2023-03-17T13:52:47;101025.63;;;17.19;40.62
22872;BME280;11603;44.910;8.630;2023-03-17T14:00:38;101017.91;;;17.15;40.75
22872;BME280;11603;44.910;8.630;2023-03-17T14:03:09;101009.03;;;17.13;41.01
22872;BME280;11603;44.910;8.630;2023-03-17T14:05:36;101010.16;;;17.10;41.23
22872;BME280;11603;44.910;8.630;2023-03-17T14:08:13;101001.16;;;17.21;41.31
22872;BME280;11603;44.910;8.630;2023-03-17T14:10:41;101009.19;;;17.11;42.09
22872;BME280;11603;44.910;8.630;2023-03-17T14:15:49;101000.88;;;17.35;41.24
22872;BME280;11603;44.910;8.630;2023-03-17T14:18:41;100996.09;;;16.96;41.55